createdAt,value
2018-06-09T00:00:05.810Z,97.80
2018-06-09T00:05:01.901Z,97.70
2018-06-09T00:07:30.030Z,97.40
2018-06-09T00:09:58.156Z,97.60
2018-06-09T00:12:26.312Z,97.60
2018-06-09T00:14:54.447Z,97.40
2018-06-09T00:17:22.902Z,97.40
2018-06-09T00:19:51.041Z,97.20
2018-06-09T00:22:19.192Z,96.80
2018-06-09T00:24:47.320Z,96.90
2018-06-09T00:27:15.507Z,96.50
2018-06-09T00:29:43.638Z,96.40
2018-06-09T00:32:11.764Z,96.20
2018-06-09T00:37:08.515Z,96.20
2018-06-09T00:42:04.579Z,96.20
2018-06-09T00:44:32.716Z,96.30
2018-06-09T00:47:00.918Z,96.30
2018-06-09T00:51:56.983Z,96.80
2018-06-09T00:54:25.119Z,96.70
2018-06-09T00:59:21.144Z,96.90
2018-06-09T01:01:49.296Z,97.10
2018-06-09T01:04:17.434Z,97.20
2018-06-09T01:06:45.560Z,97.20
2018-06-09T01:09:13.770Z,97.30
2018-06-09T01:11:41.947Z,97.20
2018-06-09T01:14:10.100Z,97.30
2018-06-09T01:16:38.227Z,97.20
2018-06-09T01:19:07.261Z,97.40
2018-06-09T01:21:35.401Z,97.50
2018-06-09T01:24:03.535Z,97.40
2018-06-09T01:26:32.348Z,97.50
2018-06-09T01:29:00.495Z,97.60
2018-06-09T01:31:28.640Z,97.70
2018-06-09T01:33:56.817Z,97.40
2018-06-09T01:36:24.949Z,97.40
2018-06-09T01:38:53.094Z,97.40
2018-06-09T01:41:21.232Z,97.50
2018-06-09T01:43:49.380Z,97.50
2018-06-09T01:46:17.544Z,97.90
2018-06-09T01:48:45.678Z,97.40
2018-06-09T01:51:13.806Z,97.50
2018-06-09T01:53:41.947Z,97.50
2018-06-09T01:56:10.081Z,97.40
2018-06-09T01:58:38.226Z,97.50
2018-06-09T02:01:06.365Z,97.50
2018-06-09T02:03:34.558Z,97.80
2018-06-09T02:06:02.690Z,97.80
2018-06-09T02:08:30.819Z,97.70
2018-06-09T02:10:59.288Z,97.70
2018-06-09T02:13:27.459Z,97.60
2018-06-09T02:15:55.588Z,97.70
2018-06-09T02:18:23.727Z,97.60
2018-06-09T02:20:51.904Z,97.60
2018-06-09T02:23:20.123Z,97.40
2018-06-09T02:25:48.263Z,97.40
2018-06-09T02:28:17.121Z,97.30
2018-06-09T02:30:45.271Z,97.30
2018-06-09T02:33:13.598Z,97.30
2018-06-09T02:35:42.773Z,97.20
2018-06-09T02:38:16.762Z,96.80
2018-06-09T02:40:44.900Z,96.70
2018-06-09T02:43:12.990Z,96.60
2018-06-09T02:45:41.091Z,96.30
2018-06-09T02:48:09.191Z,96.20
2018-06-09T02:50:37.321Z,95.90
2018-06-09T02:53:05.963Z,95.90
2018-06-09T02:55:34.047Z,95.60
2018-06-09T02:58:02.117Z,95.50
2018-06-09T03:00:30.213Z,95.50
2018-06-09T03:02:58.336Z,95.30
2018-06-09T03:05:26.439Z,95.20
2018-06-09T03:07:54.535Z,95.30
2018-06-09T03:10:22.629Z,94.30
2018-06-09T03:12:51.327Z,94.40
2018-06-09T03:15:19.407Z,94.60
2018-06-09T03:17:47.524Z,94.60
2018-06-09T03:20:15.603Z,94.50
2018-06-09T03:25:11.610Z,93.90
2018-06-09T03:27:39.691Z,94.60
2018-06-09T03:30:07.847Z,94.20
2018-06-09T03:32:35.966Z,94.10
2018-06-09T03:35:04.066Z,94.40
2018-06-09T03:37:32.520Z,94.20
2018-06-09T03:40:00.627Z,94.20
2018-06-09T03:42:28.781Z,94.20
2018-06-09T03:44:57.373Z,94.00
2018-06-09T03:47:25.535Z,93.90
2018-06-09T03:49:53.683Z,93.70
2018-06-09T03:52:21.820Z,93.60
2018-06-09T03:54:49.943Z,93.30
2018-06-09T03:57:18.102Z,92.80
2018-06-09T03:59:47.517Z,92.80
2018-06-09T04:02:15.662Z,93.00
2018-06-09T04:04:43.774Z,92.80
2018-06-09T04:07:11.925Z,92.80
2018-06-09T04:09:40.102Z,92.60
2018-06-09T04:12:08.271Z,92.80
2018-06-09T04:14:36.392Z,93.00
2018-06-09T04:17:04.680Z,93.10
2018-06-09T04:19:32.800Z,92.40
2018-06-09T04:22:00.951Z,92.50
2018-06-09T04:24:29.127Z,92.90
2018-06-09T04:26:57.267Z,92.30
2018-06-09T04:29:25.404Z,92.40
2018-06-09T04:31:53.571Z,92.50
2018-06-09T04:34:21.818Z,92.70
2018-06-09T04:36:49.958Z,92.10
2018-06-09T04:39:18.103Z,92.00
2018-06-09T04:41:46.205Z,92.00
2018-06-09T04:44:14.315Z,91.90
2018-06-09T04:46:42.484Z,91.50
2018-06-09T04:49:10.567Z,91.40
2018-06-09T04:51:38.660Z,91.00
2018-06-09T04:54:06.766Z,90.20
2018-06-09T04:56:34.857Z,91.00
2018-06-09T04:59:02.951Z,90.50
2018-06-09T05:01:31.030Z,90.50
2018-06-09T05:03:59.112Z,90.00
2018-06-09T05:06:27.220Z,90.20
2018-06-09T05:08:55.321Z,89.40
2018-06-09T05:11:23.428Z,89.80
2018-06-09T05:13:51.528Z,90.10
2018-06-09T05:16:19.677Z,88.70
2018-06-09T05:18:47.781Z,88.90
2018-06-09T05:21:15.872Z,87.30
2018-06-09T05:26:12.896Z,86.50
2018-06-09T05:28:40.990Z,86.20
2018-06-09T05:31:09.071Z,86.30
2018-06-09T05:33:37.159Z,85.80
2018-06-09T05:36:05.244Z,86.60
2018-06-09T05:38:33.339Z,86.80
2018-06-09T05:41:01.516Z,87.20
2018-06-09T05:43:29.622Z,87.30
2018-06-09T05:45:57.712Z,85.70
2018-06-09T05:50:53.768Z,84.70
2018-06-09T05:53:22.087Z,84.20
2018-06-09T05:55:50.157Z,83.50
2018-06-09T05:58:18.243Z,83.10
2018-06-09T06:00:46.335Z,82.70
2018-06-09T06:03:14.424Z,80.80
2018-06-09T06:05:42.547Z,78.60
2018-06-09T06:08:10.640Z,77.50
2018-06-09T06:10:38.740Z,76.70
2018-06-09T06:13:06.854Z,77.00
2018-06-09T06:15:34.940Z,77.40
2018-06-09T06:18:03.046Z,77.40
2018-06-09T06:20:31.128Z,75.90
2018-06-09T06:22:59.217Z,74.30
2018-06-09T06:25:27.352Z,74.90
2018-06-09T06:27:55.494Z,72.10
2018-06-09T06:30:23.911Z,75.80
2018-06-09T06:32:52.064Z,74.20
2018-06-09T06:35:20.188Z,73.90
2018-06-09T06:37:48.340Z,72.50
2018-06-09T06:40:17.486Z,73.30
2018-06-09T06:42:45.595Z,72.90
2018-06-09T06:45:13.696Z,71.60
2018-06-09T06:47:41.787Z,71.40
2018-06-09T06:50:09.881Z,72.60
2018-06-09T06:52:37.999Z,71.90
2018-06-09T06:55:06.248Z,70.50
2018-06-09T06:57:34.344Z,70.50
2018-06-09T07:00:02.461Z,70.80
2018-06-09T07:02:30.592Z,69.10
2018-06-09T07:04:58.675Z,65.20
2018-06-09T07:07:26.772Z,62.90
2018-06-09T07:09:54.856Z,62.50
2018-06-09T07:12:23.042Z,60.20
2018-06-09T07:14:51.752Z,57.60
2018-06-09T07:17:20.090Z,55.20
2018-06-09T07:19:48.167Z,53.70
2018-06-09T07:22:16.362Z,51.50
2018-06-09T07:24:44.434Z,49.20
2018-06-09T07:27:12.525Z,48.00
2018-06-09T07:29:40.624Z,47.10
2018-06-09T07:32:08.711Z,47.30
2018-06-09T07:34:36.848Z,45.20
2018-06-09T07:37:05.959Z,45.60
2018-06-09T07:39:34.040Z,45.90
2018-06-09T07:42:02.181Z,46.00
2018-06-09T07:44:30.308Z,45.90
2018-06-09T07:46:58.472Z,43.10
2018-06-09T07:51:54.581Z,43.60
2018-06-09T07:54:22.761Z,42.50
2018-06-09T07:56:50.900Z,41.90
2018-06-09T07:59:19.036Z,41.70
2018-06-09T08:18:07.278Z,48.10
2018-06-09T08:20:35.421Z,50.10
2018-06-09T08:23:03.592Z,47.20
2018-06-09T08:25:32.313Z,47.90
2018-06-09T08:28:01.087Z,48.00
2018-06-09T08:30:29.232Z,47.40
2018-06-09T08:32:57.371Z,48.00
2018-06-09T08:35:26.402Z,47.50
2018-06-09T08:37:54.523Z,48.00
2018-06-09T08:40:22.732Z,48.80
2018-06-09T08:42:50.888Z,48.70
2018-06-09T08:45:19.021Z,49.30
2018-06-09T08:47:47.147Z,50.10
2018-06-09T08:50:15.287Z,50.90
2018-06-09T08:52:43.415Z,49.50
2018-06-09T08:55:11.557Z,49.70
2018-06-09T08:57:39.679Z,51.20
2018-06-09T09:00:08.064Z,51.70
2018-06-09T09:02:36.213Z,52.00
2018-06-09T09:05:04.351Z,52.70
2018-06-09T09:07:33.287Z,52.30
2018-06-09T09:10:01.476Z,51.60
2018-06-09T09:12:29.618Z,51.80
2018-06-09T09:14:57.762Z,50.80
2018-06-09T09:17:26.253Z,51.30
2018-06-09T09:19:54.416Z,52.00
2018-06-09T09:24:50.529Z,49.50
2018-06-09T09:27:18.675Z,51.50
2018-06-09T09:29:46.831Z,52.20
2018-06-09T09:32:15.045Z,53.20
2018-06-09T09:34:43.124Z,53.50
2018-06-09T09:37:11.300Z,52.20
2018-06-09T09:39:39.465Z,50.40
2018-06-09T09:42:07.563Z,51.90
2018-06-09T09:44:35.665Z,52.40
2018-06-09T09:47:03.788Z,51.00
2018-06-09T09:49:31.876Z,50.60
2018-06-09T09:51:59.999Z,49.60
2018-06-09T09:54:28.137Z,48.80
2018-06-09T09:56:56.288Z,50.90
2018-06-09T09:59:24.463Z,49.80
2018-06-09T10:01:52.637Z,51.00
2018-06-09T10:04:20.735Z,50.80
2018-06-09T10:06:48.812Z,50.40
2018-06-09T10:09:16.920Z,51.90
2018-06-09T10:11:45.041Z,51.10
2018-06-09T10:14:13.255Z,51.20
2018-06-09T10:16:41.457Z,51.90
2018-06-09T10:19:09.581Z,50.50
2018-06-09T10:21:37.638Z,52.30
2018-06-09T10:24:05.757Z,50.60
2018-06-09T10:26:33.870Z,50.20
2018-06-09T10:29:01.936Z,49.40
2018-06-09T10:31:30.023Z,50.90
2018-06-09T10:33:58.109Z,49.80
2018-06-09T10:36:26.205Z,50.50
2018-06-09T10:38:54.291Z,49.50
2018-06-09T10:41:22.525Z,51.10
2018-06-09T10:43:50.660Z,50.20
2018-06-09T10:46:18.811Z,50.10
2018-06-09T10:48:46.947Z,48.30
2018-06-09T10:51:15.068Z,48.80
2018-06-09T10:53:43.240Z,48.00
2018-06-09T10:56:11.384Z,48.50
2018-06-09T11:01:07.424Z,49.50
2018-06-09T11:03:35.580Z,48.30
2018-06-09T11:06:03.724Z,46.90
2018-06-09T11:08:31.846Z,46.90
2018-06-09T11:10:59.969Z,46.30
2018-06-09T11:13:28.107Z,47.00
2018-06-09T11:15:56.232Z,46.60
2018-06-09T11:18:24.400Z,47.60
2018-06-09T11:20:52.594Z,48.80
2018-06-09T11:23:20.731Z,48.40
2018-06-09T11:25:48.865Z,48.90
2018-06-09T11:28:16.999Z,48.80
2018-06-09T11:30:45.164Z,47.30
2018-06-09T11:33:13.305Z,46.00
2018-06-09T11:35:41.649Z,46.00
2018-06-09T11:38:09.779Z,47.10
2018-06-09T11:40:37.941Z,48.70
2018-06-09T11:43:06.052Z,49.00
2018-06-09T11:45:34.161Z,48.00
2018-06-09T11:48:02.287Z,46.40
2018-06-09T11:50:30.363Z,47.40
2018-06-09T11:52:58.454Z,46.60
2018-06-09T11:55:26.614Z,47.50
2018-06-09T11:57:54.714Z,47.00
2018-06-09T12:00:22.821Z,46.30
2018-06-09T12:02:50.896Z,44.90
2018-06-09T12:05:19.086Z,45.50
2018-06-09T12:07:47.188Z,46.10
2018-06-09T12:10:15.264Z,43.00
2018-06-09T12:12:43.348Z,43.40
2018-06-09T12:15:11.432Z,45.90
2018-06-09T12:17:40.472Z,44.40
2018-06-09T12:20:08.591Z,45.30
2018-06-09T12:22:36.679Z,45.20
2018-06-09T12:25:04.824Z,44.20
2018-06-09T12:27:33.655Z,45.30
2018-06-09T12:30:01.740Z,44.70
2018-06-09T12:32:30.449Z,43.30
2018-06-09T12:34:58.487Z,44.90
2018-06-09T12:39:54.455Z,41.60
2018-06-09T12:42:22.701Z,43.30
2018-06-09T12:44:50.843Z,43.50
2018-06-09T12:47:18.980Z,42.70
2018-06-09T12:49:47.141Z,43.20
2018-06-09T12:52:15.312Z,40.80
2018-06-09T12:54:43.607Z,41.40
2018-06-09T12:57:11.704Z,42.40
2018-06-09T12:59:39.835Z,44.10
2018-06-09T13:02:07.971Z,44.80
2018-06-09T13:04:36.157Z,42.30
2018-06-09T13:09:32.204Z,43.50
2018-06-09T13:12:00.345Z,43.10
2018-06-09T13:14:28.493Z,42.40
2018-06-09T13:16:56.762Z,42.80
2018-06-09T13:19:24.891Z,42.00
2018-06-09T13:21:53.031Z,44.80
2018-06-09T13:24:21.186Z,44.10
2018-06-09T13:26:49.307Z,43.60
2018-06-09T13:29:17.456Z,45.00
2018-06-09T13:31:45.584Z,43.80
2018-06-09T13:34:13.764Z,46.00
2018-06-09T13:36:41.911Z,47.60
2018-06-09T13:41:03.240Z,46.40
2018-06-09T13:43:31.334Z,45.80
2018-06-09T13:45:59.427Z,45.30
2018-06-09T13:48:27.575Z,46.10
2018-06-09T13:50:55.678Z,46.60
2018-06-09T13:53:23.833Z,44.40
2018-06-09T13:55:51.916Z,46.50
2018-06-09T13:58:20.005Z,45.90
2018-06-09T14:00:48.086Z,45.40
2018-06-09T14:03:16.238Z,45.00
2018-06-09T14:05:44.321Z,47.00
2018-06-09T14:08:12.415Z,45.60
2018-06-09T14:10:40.513Z,45.10
2018-06-09T14:13:08.602Z,46.20
2018-06-09T14:15:36.702Z,43.30
2018-06-09T14:18:04.826Z,47.00
2018-06-09T14:20:33.969Z,46.10
2018-06-09T14:23:02.037Z,48.50
2018-06-09T14:25:30.149Z,48.80
2018-06-09T14:27:58.317Z,47.70
2018-06-09T14:30:26.411Z,48.10
2018-06-09T14:32:54.536Z,47.20
2018-06-09T14:35:22.628Z,46.00
2018-06-09T14:37:50.746Z,47.20
2018-06-09T14:40:18.839Z,47.60
2018-06-09T14:42:46.927Z,46.80
2018-06-09T14:45:15.020Z,45.90
2018-06-09T14:47:43.111Z,48.20
2018-06-09T14:50:11.203Z,47.50
2018-06-09T14:52:39.322Z,47.30
2018-06-09T14:55:07.396Z,47.80
2018-06-09T14:57:35.519Z,47.60
2018-06-09T15:00:03.708Z,46.30
2018-06-09T15:02:31.881Z,47.00
2018-06-09T15:04:59.920Z,48.60
2018-06-09T15:07:28.023Z,48.30
2018-06-09T15:09:56.100Z,46.60
2018-06-09T15:12:24.196Z,47.70
2018-06-09T15:14:52.328Z,46.40
2018-06-09T15:17:20.422Z,45.40
2018-06-09T15:19:48.530Z,47.20
2018-06-09T15:22:16.623Z,46.50
2018-06-09T15:24:44.772Z,47.10
2018-06-09T15:27:12.875Z,48.00
2018-06-09T15:29:40.955Z,48.60
2018-06-09T15:32:09.075Z,48.60
2018-06-09T15:34:37.164Z,48.10
2018-06-09T15:37:05.293Z,47.00
2018-06-09T15:39:33.986Z,47.40
2018-06-09T15:42:02.168Z,47.30
2018-06-09T15:44:30.372Z,47.80
2018-06-09T15:46:58.505Z,49.70
2018-06-09T15:49:26.631Z,50.20
2018-06-09T15:51:54.777Z,48.60
2018-06-09T15:54:22.924Z,49.30
2018-06-09T15:56:51.089Z,50.30
2018-06-09T15:59:19.317Z,49.20
2018-06-09T16:01:47.564Z,49.40
2018-06-09T16:04:15.701Z,50.50
2018-06-09T16:06:43.855Z,50.80
2018-06-09T16:09:12.161Z,50.40
2018-06-09T16:14:08.068Z,48.60
2018-06-09T16:16:36.212Z,49.50
2018-06-09T16:19:04.363Z,49.20
2018-06-09T16:21:32.484Z,49.00
2018-06-09T16:24:00.647Z,49.10
2018-06-09T16:26:28.997Z,49.50
2018-06-09T16:28:57.174Z,49.50
2018-06-09T16:31:25.311Z,49.20
2018-06-09T16:33:53.439Z,49.00
2018-06-09T16:38:50.423Z,50.10
2018-06-09T16:41:18.543Z,51.30
2018-06-09T16:43:46.673Z,50.70
2018-06-09T16:46:14.812Z,50.20
2018-06-09T16:48:42.946Z,50.20
2018-06-09T16:51:11.885Z,51.20
2018-06-09T16:53:40.024Z,49.00
2018-06-09T16:56:08.177Z,49.80
2018-06-09T16:58:36.392Z,49.30
2018-06-09T17:01:04.693Z,50.10
2018-06-09T17:03:32.798Z,49.90
2018-06-09T17:06:00.903Z,49.80
2018-06-09T17:08:29.029Z,49.30
2018-06-09T17:10:57.124Z,49.10
2018-06-09T17:13:25.198Z,49.50
2018-06-09T17:15:53.307Z,50.00
2018-06-09T17:18:21.397Z,50.10
2018-06-09T17:20:49.525Z,51.00
2018-06-09T17:23:17.676Z,50.90
2018-06-09T17:25:45.764Z,50.70
2018-06-09T17:28:13.850Z,50.50
2018-06-09T17:30:41.940Z,50.40
2018-06-09T17:38:05.913Z,50.20
2018-06-09T17:40:34.287Z,50.80
2018-06-09T17:43:02.660Z,50.80
2018-06-09T17:45:30.762Z,50.70
2018-06-09T17:47:58.867Z,51.40
2018-06-09T17:50:27.016Z,51.80
2018-06-09T17:52:55.295Z,51.30
2018-06-09T17:55:23.969Z,52.20
2018-06-09T17:57:52.094Z,51.80
2018-06-09T18:00:20.243Z,52.20
2018-06-09T18:02:48.300Z,52.10
2018-06-09T18:05:16.760Z,52.50
2018-06-09T18:07:44.839Z,52.70
2018-06-09T18:10:13.707Z,52.50
2018-06-09T18:12:41.771Z,52.60
2018-06-09T18:15:09.859Z,52.70
2018-06-09T18:17:37.939Z,53.30
2018-06-09T18:20:06.068Z,53.20
2018-06-09T18:22:34.354Z,54.30
2018-06-09T18:25:02.434Z,53.70
2018-06-09T18:27:30.752Z,54.40
2018-06-09T18:29:58.884Z,53.80
2018-06-09T18:32:26.984Z,53.90
2018-06-09T18:34:55.083Z,54.20
2018-06-09T18:37:23.172Z,54.10
2018-06-09T18:39:51.277Z,54.30
2018-06-09T18:42:19.469Z,54.60
2018-06-09T18:44:47.560Z,54.70
2018-06-09T18:47:15.652Z,54.60
2018-06-09T18:49:43.780Z,55.40
2018-06-09T18:52:11.847Z,55.60
2018-06-09T18:54:40.000Z,55.60
2018-06-09T18:57:08.082Z,56.10
2018-06-09T18:59:36.143Z,56.00
2018-06-09T19:02:04.246Z,56.80
2018-06-09T19:04:32.420Z,56.10
2018-06-09T19:07:00.513Z,56.20
2018-06-09T19:09:28.599Z,56.90
2018-06-09T19:11:56.695Z,56.50
2018-06-09T19:14:24.771Z,56.90
2018-06-09T19:16:52.851Z,57.40
2018-06-09T19:19:20.939Z,57.70
2018-06-09T19:21:49.058Z,57.50
2018-06-09T19:24:17.846Z,58.20
2018-06-09T19:26:45.915Z,58.10
2018-06-09T19:29:14.240Z,58.20
2018-06-09T19:31:42.345Z,58.30
2018-06-09T19:34:10.593Z,58.60
2018-06-09T19:36:38.694Z,58.50
2018-06-09T19:39:07.871Z,59.00
2018-06-09T19:41:36.356Z,59.10
2018-06-09T19:44:04.533Z,59.50
2018-06-09T19:46:32.667Z,60.30
2018-06-09T19:49:00.800Z,60.70
2018-06-09T19:51:28.919Z,61.20
2018-06-09T19:53:57.061Z,62.20
2018-06-09T19:56:25.193Z,63.40
2018-06-09T19:58:53.359Z,63.90
2018-06-09T20:01:21.556Z,65.40
2018-06-09T20:03:49.711Z,65.50
2018-06-09T20:06:17.867Z,65.90
2018-06-09T20:08:46.024Z,66.60
